createdAt,value
2022-10-01T00:01:15.446Z,26.40
2022-10-01T00:03:43.090Z,28.13
2022-10-01T00:06:12.688Z,27.87
2022-10-01T00:08:40.951Z,26.03
2022-10-01T00:11:08.993Z,29.03
2022-10-01T00:13:36.373Z,23.37
2022-10-01T00:16:06.775Z,25.30
2022-10-01T00:18:35.990Z,25.47
2022-10-01T00:21:06.173Z,24.60
2022-10-01T00:23:33.069Z,27.20
2022-10-01T00:26:08.944Z,22.47
2022-10-01T00:28:36.462Z,24.87
2022-10-01T00:31:03.477Z,25.93
2022-10-01T00:33:31.369Z,24.67
2022-10-01T00:35:58.275Z,25.83
2022-10-01T00:38:25.165Z,23.33
2022-10-01T00:40:52.741Z,25.93
2022-10-01T00:43:20.787Z,28.53
2022-10-01T00:45:48.846Z,23.53
2022-10-01T00:48:15.704Z,24.97
2022-10-01T00:50:43.234Z,24.50
2022-10-01T00:53:12.158Z,25.33
2022-10-01T00:55:42.445Z,25.97
2022-10-01T00:58:12.414Z,24.40
2022-10-01T01:00:41.167Z,25.50
2022-10-01T01:03:10.179Z,30.10
2022-10-01T01:05:37.083Z,28.23
2022-10-01T01:08:04.069Z,28.97
2022-10-01T01:10:37.141Z,29.50
2022-10-01T01:13:12.513Z,26.30
2022-10-01T01:15:44.559Z,26.20
2022-10-01T01:18:17.487Z,31.33
2022-10-01T01:21:08.093Z,26.27
2022-10-01T01:24:11.197Z,30.53
2022-10-01T01:26:49.342Z,31.30
2022-10-01T01:29:24.897Z,28.73
2022-10-01T01:31:54.774Z,26.57
2022-10-01T01:34:25.375Z,31.73
2022-10-01T01:36:57.860Z,29.73
2022-10-01T01:39:26.893Z,31.10
2022-10-01T01:41:58.795Z,33.60
2022-10-01T01:44:31.249Z,30.73
2022-10-01T01:47:00.971Z,33.10
2022-10-01T01:49:29.243Z,32.83
2022-10-01T01:52:03.630Z,35.10
2022-10-01T01:54:30.789Z,31.23
2022-10-01T01:56:58.210Z,30.90
2022-10-01T01:59:26.555Z,31.97
2022-10-01T02:01:53.620Z,27.57
2022-10-01T02:04:22.995Z,32.67
2022-10-01T02:07:04.545Z,29.73
2022-10-01T02:09:35.176Z,27.57
2022-10-01T02:12:11.500Z,26.27
2022-10-01T02:14:52.483Z,29.93
2022-10-01T02:17:29.383Z,28.43
2022-10-01T02:19:59.525Z,29.87
2022-10-01T02:22:34.945Z,25.50
2022-10-01T02:25:06.030Z,26.33
2022-10-01T02:27:40.308Z,30.53
2022-10-01T02:30:11.100Z,28.03
2022-10-01T02:32:40.274Z,27.57
2022-10-01T02:35:10.833Z,32.13
2022-10-01T02:37:39.968Z,29.70
2022-10-01T02:40:12.029Z,27.17
2022-10-01T02:42:39.865Z,23.63
2022-10-01T02:45:08.833Z,27.47
2022-10-01T02:47:37.949Z,27.23
2022-10-01T02:50:06.772Z,26.60
2022-10-01T02:52:40.459Z,26.20
2022-10-01T02:55:11.425Z,27.53
2022-10-01T02:57:38.270Z,27.90
2022-10-01T03:00:08.932Z,28.97
2022-10-01T03:02:35.897Z,29.90
2022-10-01T03:05:03.239Z,27.97
2022-10-01T03:07:31.680Z,26.63
2022-10-01T03:09:58.505Z,24.67
2022-10-01T03:12:25.449Z,29.00
2022-10-01T03:14:52.997Z,24.23
2022-10-01T03:17:21.014Z,30.30
2022-10-01T03:19:47.881Z,27.03
2022-10-01T03:22:18.358Z,24.73
2022-10-01T03:24:45.205Z,26.10
2022-10-01T03:27:12.151Z,26.50
2022-10-01T03:29:38.980Z,28.47
2022-10-01T03:32:05.886Z,26.70
2022-10-01T03:34:33.241Z,24.63
2022-10-01T03:37:00.091Z,27.07
2022-10-01T03:39:26.963Z,25.80
2022-10-01T03:41:53.915Z,25.37
2022-10-01T03:44:21.124Z,24.67
2022-10-01T03:46:48.082Z,26.27
2022-10-01T03:49:15.069Z,25.60
2022-10-01T03:51:44.148Z,22.30
2022-10-01T03:54:11.060Z,23.33
2022-10-01T03:56:40.144Z,24.00
2022-10-01T03:59:06.916Z,25.90
2022-10-01T04:01:34.221Z,26.80
2022-10-01T04:04:01.559Z,24.40
2022-10-01T04:06:28.145Z,27.17
2022-10-01T04:08:57.642Z,23.40
2022-10-01T04:11:25.027Z,23.40
2022-10-01T04:13:51.627Z,22.90
2022-10-01T04:16:18.619Z,22.63
2022-10-01T04:18:45.794Z,18.73
2022-10-01T04:21:12.730Z,23.97
2022-10-01T04:23:39.792Z,21.43
2022-10-01T04:26:07.545Z,21.37
2022-10-01T04:28:34.653Z,16.93
2022-10-01T04:31:20.018Z,17.23
2022-10-01T04:33:46.568Z,19.93
2022-10-01T04:36:13.079Z,15.73
2022-10-01T04:38:39.985Z,16.77
2022-10-01T04:41:08.138Z,14.70
2022-10-01T04:43:35.012Z,15.60
2022-10-01T04:46:01.845Z,13.53
2022-10-01T04:48:28.682Z,17.83
2022-10-01T04:50:55.243Z,15.80
2022-10-01T04:53:22.363Z,13.60
2022-10-01T04:55:49.243Z,15.63
2022-10-01T04:58:17.896Z,15.77
2022-10-01T05:00:44.778Z,12.60
2022-10-01T05:03:11.646Z,12.67
2022-10-01T05:05:38.518Z,16.17
2022-10-01T05:08:05.402Z,11.40
2022-10-01T05:10:32.335Z,13.23
2022-10-01T05:13:00.543Z,13.07
2022-10-01T05:15:28.289Z,13.90
2022-10-01T05:17:55.263Z,12.47
2022-10-01T05:20:23.801Z,11.03
2022-10-01T05:22:50.709Z,15.40
2022-10-01T05:25:18.544Z,15.37
2022-10-01T05:27:45.772Z,11.47
2022-10-01T05:30:19.340Z,10.67
2022-10-01T05:32:55.150Z,11.27
2022-10-01T05:35:22.030Z,10.40
2022-10-01T05:37:48.911Z,9.83
2022-10-01T05:40:15.796Z,11.33
2022-10-01T05:42:45.700Z,9.87
2022-10-01T05:45:12.557Z,9.43
2022-10-01T05:47:43.035Z,10.77
2022-10-01T05:50:10.393Z,11.10
2022-10-01T05:52:37.731Z,9.47
2022-10-01T05:55:04.912Z,9.13
2022-10-01T05:57:31.737Z,9.27
2022-10-01T05:59:59.077Z,9.63
2022-10-01T06:02:26.089Z,7.57
2022-10-01T06:04:52.698Z,8.57
2022-10-01T06:07:20.229Z,9.00
2022-10-01T06:09:49.310Z,8.57
2022-10-01T06:12:19.731Z,10.73
2022-10-01T06:14:46.851Z,8.30
2022-10-01T06:17:13.668Z,7.77
2022-10-01T06:19:40.586Z,6.83
2022-10-01T06:22:07.492Z,8.00
2022-10-01T06:24:35.569Z,8.20
2022-10-01T06:27:02.380Z,8.87
2022-10-01T06:29:29.243Z,7.23
2022-10-01T06:31:56.391Z,7.87
2022-10-01T06:34:23.386Z,8.30
2022-10-01T06:36:50.234Z,12.33
2022-10-01T06:39:17.097Z,7.93
2022-10-01T06:41:44.329Z,7.13
2022-10-01T06:44:11.202Z,7.60
2022-10-01T06:46:37.765Z,9.40
2022-10-01T06:49:04.586Z,8.67
2022-10-01T06:51:49.758Z,9.13
2022-10-01T06:54:17.479Z,8.80
2022-10-01T06:56:45.410Z,9.13
2022-10-01T06:59:12.459Z,9.13
2022-10-01T07:01:39.483Z,7.90
2022-10-01T07:04:06.545Z,8.57
2022-10-01T07:06:33.402Z,7.90
2022-10-01T07:09:00.256Z,7.30
2022-10-01T07:11:27.206Z,7.47
2022-10-01T07:13:56.891Z,8.37
2022-10-01T07:16:23.965Z,8.90
2022-10-01T07:18:51.926Z,8.00
2022-10-01T07:21:18.829Z,7.87
2022-10-01T07:23:45.692Z,8.03
2022-10-01T07:26:12.570Z,10.63
2022-10-01T07:28:39.444Z,8.17
2022-10-01T07:31:10.551Z,10.40
2022-10-01T07:33:37.580Z,8.77
2022-10-01T07:36:05.841Z,7.27
2022-10-01T07:38:33.186Z,7.70
2022-10-01T07:41:02.196Z,7.53
2022-10-01T07:43:32.443Z,7.27
2022-10-01T07:46:01.282Z,8.57
2022-10-01T07:48:31.349Z,7.37
2022-10-01T07:50:58.231Z,11.63
2022-10-01T07:53:27.277Z,7.93
2022-10-01T07:55:54.249Z,7.90
2022-10-01T07:58:23.199Z,7.40
2022-10-01T08:00:57.787Z,5.73
2022-10-01T08:03:24.724Z,7.47
2022-10-01T08:05:52.961Z,6.83
2022-10-01T08:08:24.864Z,7.23
2022-10-01T08:10:52.082Z,11.37
2022-10-01T08:13:23.913Z,8.93
2022-10-01T08:15:52.944Z,8.23
2022-10-01T08:18:22.466Z,6.47
2022-10-01T08:20:49.510Z,8.70
2022-10-01T08:23:17.221Z,8.93
2022-10-01T08:25:44.563Z,8.07
2022-10-01T08:28:12.084Z,6.97
2022-10-01T08:31:03.892Z,8.70
2022-10-01T08:33:30.816Z,6.90
2022-10-01T08:36:01.348Z,6.57
2022-10-01T08:38:29.400Z,7.43
2022-10-01T08:41:04.036Z,6.87
2022-10-01T08:43:33.499Z,5.90
2022-10-01T08:46:05.907Z,5.97
2022-10-01T08:48:44.808Z,6.30
2022-10-01T08:51:21.564Z,5.90
2022-10-01T08:53:53.142Z,6.40
2022-10-01T08:56:33.732Z,6.17
2022-10-01T08:59:05.068Z,6.77
2022-10-01T09:01:32.949Z,5.83
2022-10-01T09:04:02.312Z,5.57
2022-10-01T09:06:29.493Z,5.07
2022-10-01T09:09:25.675Z,5.20
2022-10-01T09:12:03.794Z,5.17
2022-10-01T09:14:51.060Z,4.77
2022-10-01T09:17:29.594Z,6.93
2022-10-01T09:20:08.159Z,5.60
2022-10-01T09:22:39.401Z,5.90
2022-10-01T09:25:21.445Z,5.63
2022-10-01T09:27:48.586Z,7.40
2022-10-01T09:30:18.980Z,4.63
2022-10-01T09:32:51.795Z,5.87
2022-10-01T09:35:38.438Z,4.90
2022-10-01T09:38:13.273Z,5.30
2022-10-01T09:40:49.211Z,4.10
2022-10-01T09:43:19.201Z,5.03
2022-10-01T09:45:47.032Z,3.63
2022-10-01T09:48:22.943Z,4.50
2022-10-01T09:50:54.944Z,4.03
2022-10-01T09:53:26.039Z,2.67
2022-10-01T09:55:58.310Z,6.73
2022-10-01T09:58:28.724Z,3.50
2022-10-01T10:00:56.326Z,2.80
2022-10-01T10:03:26.705Z,2.53
2022-10-01T10:05:54.311Z,2.20
2022-10-01T10:08:30.525Z,3.70
2022-10-01T10:11:06.253Z,2.80
2022-10-01T10:13:35.478Z,2.83
2022-10-01T10:16:09.848Z,2.30
2022-10-01T10:18:40.726Z,2.33
2022-10-01T10:21:14.388Z,2.70
2022-10-01T10:23:49.101Z,2.90
2022-10-01T10:26:27.873Z,4.30
2022-10-01T10:28:55.999Z,4.23
2022-10-01T10:31:24.674Z,3.50
2022-10-01T10:34:02.753Z,6.70
2022-10-01T10:36:36.199Z,4.97
2022-10-01T10:39:05.576Z,4.10
2022-10-01T10:41:34.734Z,7.90
2022-10-01T10:44:07.788Z,5.17
2022-10-01T10:46:46.113Z,6.30
2022-10-01T10:49:20.163Z,6.03
2022-10-01T10:51:50.719Z,5.23
2022-10-01T10:54:26.343Z,7.43
2022-10-01T10:57:01.925Z,6.17
2022-10-01T10:59:34.149Z,7.93
2022-10-01T11:02:04.366Z,5.53
2022-10-01T11:04:41.368Z,6.40
2022-10-01T11:07:09.604Z,7.27
2022-10-01T11:09:52.323Z,7.27
2022-10-01T11:12:35.987Z,7.63
2022-10-01T11:15:14.431Z,8.53
2022-10-01T11:18:25.183Z,7.47
2022-10-01T11:21:02.356Z,5.93
2022-10-01T11:24:04.695Z,7.80
2022-10-01T11:26:40.518Z,8.63
2022-10-01T11:29:22.431Z,7.43
2022-10-01T11:32:01.549Z,7.30
2022-10-01T11:34:49.591Z,6.50
2022-10-01T11:37:37.451Z,6.00
2022-10-01T11:40:14.313Z,5.27
2022-10-01T11:42:43.209Z,7.47
2022-10-01T11:45:41.574Z,4.87
2022-10-01T11:48:17.162Z,5.33
2022-10-01T11:50:47.946Z,6.13
2022-10-01T11:53:23.396Z,4.77
2022-10-01T11:56:16.470Z,5.97
2022-10-01T11:58:51.412Z,4.57
2022-10-01T12:01:29.892Z,6.17
2022-10-01T12:04:21.685Z,4.97
2022-10-01T12:06:55.356Z,5.87
2022-10-01T12:09:29.936Z,4.80
2022-10-01T12:12:03.509Z,7.07
2022-10-01T12:14:37.988Z,5.47
2022-10-01T12:17:13.047Z,5.77
2022-10-01T12:19:45.734Z,5.00
2022-10-01T12:22:17.974Z,5.00
2022-10-01T12:24:46.314Z,4.30
2022-10-01T12:27:41.166Z,4.63
2022-10-01T12:30:12.856Z,5.60
2022-10-01T12:33:00.805Z,3.97
2022-10-01T12:35:40.097Z,4.27
2022-10-01T12:38:20.574Z,4.13
2022-10-01T12:40:53.948Z,4.07
2022-10-01T12:43:54.707Z,5.30
2022-10-01T12:46:32.472Z,5.53
2022-10-01T12:49:08.235Z,8.37
2022-10-01T12:51:40.900Z,4.37
2022-10-01T12:54:30.276Z,4.33
2022-10-01T12:57:08.256Z,7.80
2022-10-01T12:59:49.874Z,4.37
2022-10-01T13:02:31.269Z,9.77
2022-10-01T13:05:19.351Z,6.00
2022-10-01T13:07:56.352Z,8.00
2022-10-01T13:10:41.377Z,5.97
2022-10-01T13:13:16.288Z,6.10
2022-10-01T13:15:46.869Z,5.20
2022-10-01T13:18:27.236Z,4.83
2022-10-01T13:21:02.158Z,5.40
2022-10-01T13:23:35.379Z,4.60
2022-10-01T13:26:08.806Z,8.37
2022-10-01T13:28:51.808Z,5.97
2022-10-01T13:31:18.869Z,6.20
2022-10-01T13:33:54.911Z,5.70
2022-10-01T13:36:30.257Z,5.93
2022-10-01T13:38:57.144Z,5.73
2022-10-01T13:41:26.997Z,5.00
2022-10-01T13:43:57.542Z,6.70
2022-10-01T13:46:27.793Z,4.93
2022-10-01T13:48:55.282Z,5.27
2022-10-01T13:51:22.120Z,7.17
2022-10-01T13:53:57.896Z,4.93
2022-10-01T13:56:29.587Z,5.27
2022-10-01T13:58:56.745Z,7.30
2022-10-01T14:01:29.116Z,4.93
2022-10-01T14:04:04.520Z,4.57
2022-10-01T14:06:38.602Z,4.60
2022-10-01T14:09:13.578Z,4.50
2022-10-01T14:12:02.185Z,3.70
2022-10-01T14:14:52.120Z,4.33
2022-10-01T14:17:21.970Z,4.70
2022-10-01T14:19:51.354Z,4.50
2022-10-01T14:22:31.915Z,3.73
2022-10-01T14:25:37.293Z,4.40
2022-10-01T14:28:23.398Z,4.33
2022-10-01T14:30:58.473Z,5.00
2022-10-01T14:33:45.332Z,3.83
2022-10-01T14:36:18.044Z,3.67
2022-10-01T14:38:44.968Z,3.73
2022-10-01T14:41:17.972Z,4.17
2022-10-01T14:43:45.982Z,4.77
2022-10-01T14:46:15.881Z,4.00
2022-10-01T14:48:43.483Z,4.83
2022-10-01T14:51:25.562Z,4.57
2022-10-01T14:53:53.147Z,4.07
2022-10-01T14:56:20.509Z,5.17
2022-10-01T14:58:53.978Z,5.00
2022-10-01T15:01:23.267Z,4.87
2022-10-01T15:03:53.323Z,4.50
2022-10-01T15:06:22.732Z,4.63
2022-10-01T15:08:50.413Z,3.93
2022-10-01T15:11:21.186Z,4.97
2022-10-01T15:13:50.703Z,4.97
2022-10-01T15:16:20.608Z,4.33
2022-10-01T15:18:52.662Z,5.10
2022-10-01T15:21:24.556Z,3.37
2022-10-01T15:23:54.180Z,3.40
2022-10-01T15:26:26.710Z,3.93
2022-10-01T15:29:03.175Z,3.07
2022-10-01T15:31:30.402Z,4.60
2022-10-01T15:33:57.550Z,3.17
2022-10-01T15:36:24.761Z,4.03
2022-10-01T15:38:51.768Z,2.63
2022-10-01T15:41:31.585Z,3.20
2022-10-01T15:44:05.105Z,3.87
2022-10-01T15:46:34.453Z,3.60
2022-10-01T15:49:16.732Z,2.40
2022-10-01T15:52:17.007Z,3.20
2022-10-01T15:54:45.256Z,4.77
2022-10-01T15:57:17.524Z,2.30
2022-10-01T15:59:51.081Z,2.43
2022-10-01T16:02:25.312Z,4.77
2022-10-01T16:04:55.896Z,3.93
2022-10-01T16:07:27.999Z,4.07
2022-10-01T16:09:57.190Z,2.60
2022-10-01T16:12:24.222Z,4.47
2022-10-01T16:14:59.675Z,3.20
2022-10-01T16:17:33.899Z,4.07
2022-10-01T16:20:01.825Z,4.23
2022-10-01T16:22:31.375Z,3.23
2022-10-01T16:25:00.450Z,3.23
2022-10-01T16:27:28.911Z,3.27
2022-10-01T16:30:05.073Z,4.77
2022-10-01T16:32:32.556Z,6.07
2022-10-01T16:35:18.211Z,4.60
2022-10-01T16:37:46.829Z,3.20
2022-10-01T16:40:16.222Z,3.70
2022-10-01T16:42:47.386Z,2.83
2022-10-01T16:45:17.537Z,3.30
2022-10-01T16:47:46.878Z,4.57
2022-10-01T16:50:17.179Z,3.30
2022-10-01T16:52:44.297Z,3.30
2022-10-01T16:55:17.764Z,3.83
2022-10-01T16:57:44.982Z,3.20
2022-10-01T17:00:26.867Z,5.30
2022-10-01T17:02:55.298Z,4.53
2022-10-01T17:05:42.124Z,5.00
2022-10-01T17:08:19.859Z,5.27
2022-10-01T17:10:50.515Z,5.40
2022-10-01T17:13:52.907Z,6.00
2022-10-01T17:16:24.411Z,5.57
2022-10-01T17:18:51.679Z,4.33
2022-10-01T17:21:18.593Z,7.27
2022-10-01T17:23:47.982Z,10.10
2022-10-01T17:26:17.043Z,8.00
2022-10-01T17:28:43.988Z,8.87
2022-10-01T17:31:15.564Z,9.70
2022-10-01T17:33:45.804Z,10.27
2022-10-01T17:36:13.268Z,9.53
2022-10-01T17:38:40.061Z,7.77
2022-10-01T17:41:07.242Z,7.77
2022-10-01T17:43:36.078Z,8.00
2022-10-01T17:46:03.127Z,5.50
2022-10-01T17:48:30.057Z,8.17
2022-10-01T17:51:05.079Z,8.60
2022-10-01T17:53:36.132Z,7.53
2022-10-01T17:56:08.739Z,7.40
2022-10-01T17:58:35.584Z,9.17
2022-10-01T18:01:02.863Z,4.97
2022-10-01T18:03:29.748Z,4.37
2022-10-01T18:06:01.754Z,21.27
2022-10-01T18:08:44.650Z,5.73
2022-10-01T18:11:17.290Z,7.87
2022-10-01T18:13:44.179Z,39.73
2022-10-01T18:16:15.061Z,37.37
2022-10-01T18:21:33.958Z,18.77
2022-10-01T18:24:35.335Z,15.10
2022-10-01T18:27:05.697Z,22.20
2022-10-01T18:29:32.684Z,9.53
2022-10-01T18:32:02.509Z,11.57
2022-10-01T18:34:33.330Z,15.47
2022-10-01T18:37:28.603Z,11.47
2022-10-01T18:40:03.515Z,6.53
2022-10-01T18:42:42.169Z,7.70
2022-10-01T18:45:16.289Z,7.33
2022-10-01T18:47:54.395Z,4.90
2022-10-01T18:50:28.085Z,6.23
2022-10-01T18:53:10.512Z,6.43
2022-10-01T18:56:06.847Z,4.63
2022-10-01T18:58:52.572Z,6.40
2022-10-01T19:01:29.555Z,5.10
2022-10-01T19:04:27.532Z,6.13
2022-10-01T19:07:05.767Z,6.63
2022-10-01T19:09:48.096Z,30.77
2022-10-01T19:12:30.517Z,13.63
2022-10-01T19:15:16.534Z,12.87
2022-10-01T19:17:52.193Z,13.47
2022-10-01T19:20:45.839Z,9.70
2022-10-01T19:23:37.800Z,6.83
2022-10-01T19:26:13.391Z,7.90
2022-10-01T19:28:52.054Z,7.33
2022-10-01T19:31:27.022Z,8.13
2022-10-01T19:34:00.516Z,6.17
2022-10-01T19:36:34.419Z,5.77
2022-10-01T19:39:06.331Z,8.00
2022-10-01T19:41:38.454Z,7.90
2022-10-01T19:44:11.855Z,14.60
2022-10-01T19:46:43.307Z,9.60
2022-10-01T19:49:15.940Z,7.23
2022-10-01T19:51:47.626Z,9.33
2022-10-01T19:54:17.210Z,6.17
2022-10-01T19:56:46.770Z,6.27
2022-10-01T19:59:19.393Z,5.97
2022-10-01T20:01:49.798Z,5.70
2022-10-01T20:04:21.675Z,9.10
2022-10-01T20:06:49.814Z,5.13
2022-10-01T20:09:28.881Z,6.90
2022-10-01T20:12:04.174Z,12.00
2022-10-01T20:15:07.193Z,5.80
2022-10-01T20:17:43.897Z,7.10
2022-10-01T20:20:17.454Z,10.97
2022-10-01T20:23:37.007Z,11.57
2022-10-01T20:26:16.446Z,12.07
2022-10-01T20:28:53.911Z,7.43
2022-10-01T20:31:27.681Z,5.40
2022-10-01T20:34:02.547Z,6.83
2022-10-01T20:36:39.559Z,5.03
2022-10-01T20:39:14.716Z,7.70
2022-10-01T20:41:45.596Z,7.03
2022-10-01T20:44:16.935Z,9.63
2022-10-01T20:46:46.930Z,5.30
2022-10-01T20:49:23.146Z,7.53
2022-10-01T20:51:58.630Z,6.30
2022-10-01T20:54:32.490Z,5.70
2022-10-01T20:57:05.382Z,6.70
2022-10-01T20:59:36.857Z,5.13
2022-10-01T21:02:15.758Z,3.37
2022-10-01T21:04:50.654Z,4.23
2022-10-01T21:07:27.533Z,6.30
2022-10-01T21:09:56.858Z,7.03
2022-10-01T21:12:30.456Z,3.07
2022-10-01T21:14:57.492Z,8.50
2022-10-01T21:17:37.671Z,5.40
2022-10-01T21:20:16.766Z,6.07
2022-10-01T21:22:57.350Z,7.57
2022-10-01T21:25:31.766Z,8.97
2022-10-01T21:28:11.430Z,6.10
2022-10-01T21:30:56.284Z,8.70
2022-10-01T21:33:29.938Z,5.83
2022-10-01T21:36:01.728Z,6.20
2022-10-01T21:38:34.673Z,6.13
2022-10-01T21:41:13.907Z,6.27
2022-10-01T21:43:56.451Z,33.97
2022-10-01T21:46:31.756Z,12.37
2022-10-01T21:49:08.340Z,4.13
2022-10-01T21:51:47.449Z,6.10
2022-10-01T21:54:44.274Z,8.43
2022-10-01T21:57:24.316Z,5.37
2022-10-01T22:00:10.436Z,8.53
2022-10-01T22:02:47.360Z,7.87
2022-10-01T22:05:22.783Z,4.37
2022-10-01T22:07:59.964Z,5.93
2022-10-01T22:10:31.530Z,8.07
2022-10-01T22:13:02.696Z,6.97
2022-10-01T22:15:33.111Z,7.57
2022-10-01T22:18:04.099Z,6.00
2022-10-01T22:20:34.481Z,7.40
2022-10-01T22:23:05.432Z,5.90
2022-10-01T22:25:36.289Z,6.17
2022-10-01T22:28:07.403Z,6.53
2022-10-01T22:30:36.846Z,5.63
2022-10-01T22:33:07.946Z,8.47
2022-10-01T22:35:42.375Z,33.43
2022-10-01T22:38:16.978Z,14.03
2022-10-01T22:40:46.366Z,12.87
2022-10-01T22:43:14.225Z,15.77
2022-10-01T22:45:59.138Z,8.97
2022-10-01T22:48:48.360Z,12.43
2022-10-01T22:51:28.991Z,9.73
2022-10-01T22:54:17.563Z,10.03
2022-10-01T22:56:54.186Z,22.17
2022-10-01T22:59:23.292Z,12.80
2022-10-01T23:01:58.621Z,7.57
2022-10-01T23:04:39.388Z,6.27
2022-10-01T23:07:18.669Z,7.83
2022-10-01T23:09:53.627Z,8.97
2022-10-01T23:12:31.377Z,7.33
2022-10-01T23:15:14.658Z,9.30
2022-10-01T23:17:46.241Z,9.20
2022-10-01T23:20:21.346Z,21.60
2022-10-01T23:23:07.638Z,14.73
2022-10-01T23:25:49.277Z,9.37
2022-10-01T23:28:26.194Z,7.77
2022-10-01T23:31:03.629Z,12.37
2022-10-01T23:33:52.128Z,10.80
2022-10-01T23:36:32.140Z,8.17
2022-10-01T23:39:34.525Z,7.23
2022-10-01T23:42:08.703Z,6.07
2022-10-01T23:44:39.683Z,8.40
2022-10-01T23:47:13.373Z,11.07
2022-10-01T23:49:51.496Z,13.77
2022-10-01T23:52:24.177Z,8.83
2022-10-01T23:55:16.805Z,6.33
2022-10-01T23:57:44.374Z,29.80
